sensor_id;sensor_type;location;lat;lon;timestamp;temperature;humidity
4390;DHT22;2209;48.982;8.406;2023-02-01T00:01:25;6.20;99.90
4390;DHT22;2209;48.982;8.406;2023-02-01T00:03:47;6.20;99.90
4390;DHT22;2209;48.982;8.406;2023-02-01T00:06:11;6.20;99.90
4390;DHT22;2209;48.982;8.406;2023-02-01T00:08:33;6.20;99.90
4390;DHT22;2209;48.982;8.406;2023-02-01T00:10:59;6.20;99.90
4390;DHT22;2209;48.982;8.406;2023-02-01T00:13:21;6.20;99.90
4390;DHT22;2209;48.982;8.406;2023-02-01T00:15:43;6.20;99.90
4390;DHT22;2209;48.982;8.406;2023-02-01T00:18:05;6.20;99.90
4390;DHT22;2209;48.982;8.406;2023-02-01T00:20:27;6.20;99.90
4390;DHT22;2209;48.982;8.406;2023-02-01T00:22:51;6.20;99.90
4390;DHT22;2209;48.982;8.406;2023-02-01T00:25:13;6.20;99.90
4390;DHT22;2209;48.982;8.406;2023-02-01T00:27:35;6.20;99.90
4390;DHT22;2209;48.982;8.406;2023-02-01T00:29:57;6.20;99.90
4390;DHT22;2209;48.982;8.406;2023-02-01T00:32:19;6.20;99.90
4390;DHT22;2209;48.982;8.406;2023-02-01T00:34:41;6.20;99.90
4390;DHT22;2209;48.982;8.406;2023-02-01T00:37:03;6.20;99.90
4390;DHT22;2209;48.982;8.406;2023-02-01T00:39:27;6.20;99.90
4390;DHT22;2209;48.982;8.406;2023-02-01T00:41:49;6.30;99.90
4390;DHT22;2209;48.982;8.406;2023-02-01T00:44:11;6.20;99.90
4390;DHT22;2209;48.982;8.406;2023-02-01T00:46:33;6.20;99.90
4390;DHT22;2209;48.982;8.406;2023-02-01T00:48:55;6.20;99.90
4390;DHT22;2209;48.982;8.406;2023-02-01T00:51:19;6.20;99.90
4390;DHT22;2209;48.982;8.406;2023-02-01T00:53:42;6.20;99.90
4390;DHT22;2209;48.982;8.406;2023-02-01T00:56:06;6.20;99.90
4390;DHT22;2209;48.982;8.406;2023-02-01T00:58:28;6.30;99.90
4390;DHT22;2209;48.982;8.406;2023-02-01T01:00:56;6.30;99.90
4390;DHT22;2209;48.982;8.406;2023-02-01T01:03:22;6.30;99.90
4390;DHT22;2209;48.982;8.406;2023-02-01T01:05:44;6.30;99.90
4390;DHT22;2209;48.982;8.406;2023-02-01T01:08:06;6.30;99.90
4390;DHT22;2209;48.982;8.406;2023-02-01T01:10:28;6.20;99.90
4390;DHT22;2209;48.982;8.406;2023-02-01T01:12:52;6.20;99.90
4390;DHT22;2209;48.982;8.406;2023-02-01T01:15:14;6.20;99.90
4390;DHT22;2209;48.982;8.406;2023-02-01T01:17:36;6.20;99.90
4390;DHT22;2209;48.982;8.406;2023-02-01T01:19:58;6.20;99.90
4390;DHT22;2209;48.982;8.406;2023-02-01T01:22:20;6.20;99.90
4390;DHT22;2209;48.982;8.406;2023-02-01T01:24:42;6.20;99.90
4390;DHT22;2209;48.982;8.406;2023-02-01T01:27:05;6.20;99.90
4390;DHT22;2209;48.982;8.406;2023-02-01T01:29:28;6.20;99.90
4390;DHT22;2209;48.982;8.406;2023-02-01T01:31:50;6.30;99.90
4390;DHT22;2209;48.982;8.406;2023-02-01T01:34:13;6.30;99.90
4390;DHT22;2209;48.982;8.406;2023-02-01T01:36:35;6.20;99.90
4390;DHT22;2209;48.982;8.406;2023-02-01T01:38:57;6.20;99.90
4390;DHT22;2209;48.982;8.406;2023-02-01T01:41:21;6.30;99.90
4390;DHT22;2209;48.982;8.406;2023-02-01T01:43:52;6.30;99.90
4390;DHT22;2209;48.982;8.406;2023-02-01T01:46:17;6.30;99.90
4390;DHT22;2209;48.982;8.406;2023-02-01T01:48:40;6.30;99.90
4390;DHT22;2209;48.982;8.406;2023-02-01T01:51:05;6.30;99.90
4390;DHT22;2209;48.982;8.406;2023-02-01T01:53:33;6.30;99.90
4390;DHT22;2209;48.982;8.406;2023-02-01T01:55:56;6.30;99.90
4390;DHT22;2209;48.982;8.406;2023-02-01T01:58:21;6.30;99.90
4390;DHT22;2209;48.982;8.406;2023-02-01T02:00:45;6.30;99.90
4390;DHT22;2209;48.982;8.406;2023-02-01T02:03:14;6.30;99.90
4390;DHT22;2209;48.982;8.406;2023-02-01T02:05:37;6.30;99.90
4390;DHT22;2209;48.982;8.406;2023-02-01T02:08:00;6.30;99.90
4390;DHT22;2209;48.982;8.406;2023-02-01T02:10:22;6.30;99.90
4390;DHT22;2209;48.982;8.406;2023-02-01T02:13:04;6.30;99.90
4390;DHT22;2209;48.982;8.406;2023-02-01T02:15:27;6.30;99.90
4390;DHT22;2209;48.982;8.406;2023-02-01T02:17:57;6.30;99.90
4390;DHT22;2209;48.982;8.406;2023-02-01T02:20:45;6.30;99.90
4390;DHT22;2209;48.982;8.406;2023-02-01T02:23:32;6.20;99.90
4390;DHT22;2209;48.982;8.406;2023-02-01T02:26:21;6.30;99.90
4390;DHT22;2209;48.982;8.406;2023-02-01T02:31:49;6.30;99.90
4390;DHT22;2209;48.982;8.406;2023-02-01T02:34:22;6.20;99.90
4390;DHT22;2209;48.982;8.406;2023-02-01T02:36:55;6.20;99.90
4390;DHT22;2209;48.982;8.406;2023-02-01T02:39:25;6.20;99.90
4390;DHT22;2209;48.982;8.406;2023-02-01T02:41:55;6.20;99.90
4390;DHT22;2209;48.982;8.406;2023-02-01T02:44:44;6.20;99.90
4390;DHT22;2209;48.982;8.406;2023-02-01T02:47:29;6.20;99.90
4390;DHT22;2209;48.982;8.406;2023-02-01T02:50:01;6.20;99.90
4390;DHT22;2209;48.982;8.406;2023-02-01T02:52:48;6.20;99.90
4390;DHT22;2209;48.982;8.406;2023-02-01T02:55:32;6.30;99.90
4390;DHT22;2209;48.982;8.406;2023-02-01T02:57:57;6.30;99.90
4390;DHT22;2209;48.982;8.406;2023-02-01T03:00:38;6.30;99.90
4390;DHT22;2209;48.982;8.406;2023-02-01T03:03:18;6.30;99.90
4390;DHT22;2209;48.982;8.406;2023-02-01T03:05:59;6.40;99.90
4390;DHT22;2209;48.982;8.406;2023-02-01T03:08:23;6.30;99.90
4390;DHT22;2209;48.982;8.406;2023-02-01T03:10:50;6.30;99.90
4390;DHT22;2209;48.982;8.406;2023-02-01T03:13:20;6.30;99.90
4390;DHT22;2209;48.982;8.406;2023-02-01T03:15:47;6.30;99.90
4390;DHT22;2209;48.982;8.406;2023-02-01T03:18:13;6.30;99.90
4390;DHT22;2209;48.982;8.406;2023-02-01T03:20:40;6.30;99.90
4390;DHT22;2209;48.982;8.406;2023-02-01T03:23:06;6.30;99.90
4390;DHT22;2209;48.982;8.406;2023-02-01T03:25:31;6.30;99.90
4390;DHT22;2209;48.982;8.406;2023-02-01T03:27:57;6.30;99.90
4390;DHT22;2209;48.982;8.406;2023-02-01T03:30:24;6.20;99.90
4390;DHT22;2209;48.982;8.406;2023-02-01T03:32:50;6.30;99.90
4390;DHT22;2209;48.982;8.406;2023-02-01T03:35:23;6.30;99.90
4390;DHT22;2209;48.982;8.406;2023-02-01T03:37:48;6.20;99.90
4390;DHT22;2209;48.982;8.406;2023-02-01T03:40:13;6.30;99.90
4390;DHT22;2209;48.982;8.406;2023-02-01T03:42:38;6.20;99.90
4390;DHT22;2209;48.982;8.406;2023-02-01T03:45:06;6.20;99.90
4390;DHT22;2209;48.982;8.406;2023-02-01T03:47:34;6.30;99.90
4390;DHT22;2209;48.982;8.406;2023-02-01T03:49:59;6.30;99.90
4390;DHT22;2209;48.982;8.406;2023-02-01T03:52:26;6.30;99.90
4390;DHT22;2209;48.982;8.406;2023-02-01T03:54:50;6.30;99.90
4390;DHT22;2209;48.982;8.406;2023-02-01T03:57:18;6.30;99.90
4390;DHT22;2209;48.982;8.406;2023-02-01T03:59:44;6.20;99.90
4390;DHT22;2209;48.982;8.406;2023-02-01T04:02:06;6.20;99.90
4390;DHT22;2209;48.982;8.406;2023-02-01T04:04:28;6.30;99.90
4390;DHT22;2209;48.982;8.406;2023-02-01T04:06:51;6.30;99.90
4390;DHT22;2209;48.982;8.406;2023-02-01T04:09:13;6.30;99.90
4390;DHT22;2209;48.982;8.406;2023-02-01T04:11:35;6.30;99.90
4390;DHT22;2209;48.982;8.406;2023-02-01T04:13:58;6.40;99.90
4390;DHT22;2209;48.982;8.406;2023-02-01T04:16:25;6.40;99.90
4390;DHT22;2209;48.982;8.406;2023-02-01T04:18:47;6.40;99.90
4390;DHT22;2209;48.982;8.406;2023-02-01T04:21:09;6.40;99.90
4390;DHT22;2209;48.982;8.406;2023-02-01T04:23:31;6.40;99.90
4390;DHT22;2209;48.982;8.406;2023-02-01T04:25:53;6.40;99.90
4390;DHT22;2209;48.982;8.406;2023-02-01T04:28:16;6.40;99.90
4390;DHT22;2209;48.982;8.406;2023-02-01T04:30:39;6.40;99.90
4390;DHT22;2209;48.982;8.406;2023-02-01T04:33:02;6.40;99.90
4390;DHT22;2209;48.982;8.406;2023-02-01T04:35:26;6.40;99.90
4390;DHT22;2209;48.982;8.406;2023-02-01T04:37:49;6.40;99.90
4390;DHT22;2209;48.982;8.406;2023-02-01T04:40:11;6.40;99.90
4390;DHT22;2209;48.982;8.406;2023-02-01T04:42:33;6.30;99.90
4390;DHT22;2209;48.982;8.406;2023-02-01T04:44:56;6.30;99.90
4390;DHT22;2209;48.982;8.406;2023-02-01T04:47:19;6.30;99.90
4390;DHT22;2209;48.982;8.406;2023-02-01T04:49:41;6.30;99.90
4390;DHT22;2209;48.982;8.406;2023-02-01T04:52:03;6.30;99.90
4390;DHT22;2209;48.982;8.406;2023-02-01T04:54:25;6.30;99.90
4390;DHT22;2209;48.982;8.406;2023-02-01T04:56:48;6.30;99.90
4390;DHT22;2209;48.982;8.406;2023-02-01T04:59:10;6.30;99.90
4390;DHT22;2209;48.982;8.406;2023-02-01T05:01:33;6.40;99.90
4390;DHT22;2209;48.982;8.406;2023-02-01T05:03:56;6.40;99.90
4390;DHT22;2209;48.982;8.406;2023-02-01T05:06:18;6.40;99.90
4390;DHT22;2209;48.982;8.406;2023-02-01T05:08:40;6.40;99.90
4390;DHT22;2209;48.982;8.406;2023-02-01T05:11:03;6.40;99.90
4390;DHT22;2209;48.982;8.406;2023-02-01T05:13:25;6.30;99.90
4390;DHT22;2209;48.982;8.406;2023-02-01T05:16:05;6.40;99.90
4390;DHT22;2209;48.982;8.406;2023-02-01T05:18:27;6.30;99.90
4390;DHT22;2209;48.982;8.406;2023-02-01T05:20:51;6.20;99.90
4390;DHT22;2209;48.982;8.406;2023-02-01T05:23:13;6.20;99.90
4390;DHT22;2209;48.982;8.406;2023-02-01T05:25:35;6.30;99.90
4390;DHT22;2209;48.982;8.406;2023-02-01T05:27:57;6.30;99.90
4390;DHT22;2209;48.982;8.406;2023-02-01T05:30:19;6.30;99.90
4390;DHT22;2209;48.982;8.406;2023-02-01T05:32:41;6.30;99.90
4390;DHT22;2209;48.982;8.406;2023-02-01T05:35:04;6.20;99.90
4390;DHT22;2209;48.982;8.406;2023-02-01T05:37:27;6.20;99.90
4390;DHT22;2209;48.982;8.406;2023-02-01T05:39:49;6.20;99.90
4390;DHT22;2209;48.982;8.406;2023-02-01T05:42:11;6.20;99.90
4390;DHT22;2209;48.982;8.406;2023-02-01T05:44:33;6.20;99.90
4390;DHT22;2209;48.982;8.406;2023-02-01T05:46:55;6.20;99.90
4390;DHT22;2209;48.982;8.406;2023-02-01T05:49:17;6.20;99.90
4390;DHT22;2209;48.982;8.406;2023-02-01T05:51:39;6.20;99.90
4390;DHT22;2209;48.982;8.406;2023-02-01T05:54:03;6.20;99.90
4390;DHT22;2209;48.982;8.406;2023-02-01T05:56:25;6.20;99.90
4390;DHT22;2209;48.982;8.406;2023-02-01T05:58:47;6.20;99.90
4390;DHT22;2209;48.982;8.406;2023-02-01T06:01:09;6.20;99.90
4390;DHT22;2209;48.982;8.406;2023-02-01T06:03:31;6.20;99.90
4390;DHT22;2209;48.982;8.406;2023-02-01T06:05:53;6.20;99.90
4390;DHT22;2209;48.982;8.406;2023-02-01T06:08:16;6.20;99.90
4390;DHT22;2209;48.982;8.406;2023-02-01T06:10:39;6.20;99.90
4390;DHT22;2209;48.982;8.406;2023-02-01T06:13:02;6.20;99.90
4390;DHT22;2209;48.982;8.406;2023-02-01T06:15:24;6.20;99.90
4390;DHT22;2209;48.982;8.406;2023-02-01T06:17:46;6.20;99.90
4390;DHT22;2209;48.982;8.406;2023-02-01T06:20:09;6.20;99.90
4390;DHT22;2209;48.982;8.406;2023-02-01T06:22:32;6.20;99.90
4390;DHT22;2209;48.982;8.406;2023-02-01T06:24:56;6.20;99.90
4390;DHT22;2209;48.982;8.406;2023-02-01T06:27:21;6.20;99.90
4390;DHT22;2209;48.982;8.406;2023-02-01T06:29:44;6.20;99.90
4390;DHT22;2209;48.982;8.406;2023-02-01T06:32:06;6.20;99.90
4390;DHT22;2209;48.982;8.406;2023-02-01T06:34:28;6.20;99.90
4390;DHT22;2209;48.982;8.406;2023-02-01T06:36:50;6.20;99.90
4390;DHT22;2209;48.982;8.406;2023-02-01T06:39:12;6.20;99.90
4390;DHT22;2209;48.982;8.406;2023-02-01T06:41:36;6.20;99.90
4390;DHT22;2209;48.982;8.406;2023-02-01T06:44:00;6.20;99.90
4390;DHT22;2209;48.982;8.406;2023-02-01T06:46:22;6.20;99.90
4390;DHT22;2209;48.982;8.406;2023-02-01T06:48:44;6.20;99.90
4390;DHT22;2209;48.982;8.406;2023-02-01T06:51:18;6.20;99.90
4390;DHT22;2209;48.982;8.406;2023-02-01T06:53:40;6.20;99.90
4390;DHT22;2209;48.982;8.406;2023-02-01T06:56:03;6.20;99.90
4390;DHT22;2209;48.982;8.406;2023-02-01T06:58:28;6.20;99.90
4390;DHT22;2209;48.982;8.406;2023-02-01T07:00:51;6.30;99.90
4390;DHT22;2209;48.982;8.406;2023-02-01T07:03:14;6.20;99.90
4390;DHT22;2209;48.982;8.406;2023-02-01T07:05:36;6.20;99.90
4390;DHT22;2209;48.982;8.406;2023-02-01T07:07:58;6.20;99.90
4390;DHT22;2209;48.982;8.406;2023-02-01T07:10:20;6.30;99.90
4390;DHT22;2209;48.982;8.406;2023-02-01T07:12:43;6.30;99.90
4390;DHT22;2209;48.982;8.406;2023-02-01T07:15:06;6.30;99.90
4390;DHT22;2209;48.982;8.406;2023-02-01T07:17:29;6.30;99.90
4390;DHT22;2209;48.982;8.406;2023-02-01T07:19:51;6.30;99.90
4390;DHT22;2209;48.982;8.406;2023-02-01T07:22:16;6.30;99.90
4390;DHT22;2209;48.982;8.406;2023-02-01T07:24:38;6.30;99.90
4390;DHT22;2209;48.982;8.406;2023-02-01T07:27:00;6.30;99.90
4390;DHT22;2209;48.982;8.406;2023-02-01T07:29:22;6.30;99.90
4390;DHT22;2209;48.982;8.406;2023-02-01T07:31:44;6.30;99.90
4390;DHT22;2209;48.982;8.406;2023-02-01T07:34:08;6.30;99.90
4390;DHT22;2209;48.982;8.406;2023-02-01T07:36:30;6.30;99.90
4390;DHT22;2209;48.982;8.406;2023-02-01T07:38:54;6.30;99.90
4390;DHT22;2209;48.982;8.406;2023-02-01T07:41:16;6.30;99.90
4390;DHT22;2209;48.982;8.406;2023-02-01T07:43:38;6.30;99.90
4390;DHT22;2209;48.982;8.406;2023-02-01T07:46:01;6.30;99.90
4390;DHT22;2209;48.982;8.406;2023-02-01T07:48:24;6.20;99.90
4390;DHT22;2209;48.982;8.406;2023-02-01T07:50:48;6.20;99.90
4390;DHT22;2209;48.982;8.406;2023-02-01T07:53:10;6.30;99.90
4390;DHT22;2209;48.982;8.406;2023-02-01T07:55:32;6.20;99.90
4390;DHT22;2209;48.982;8.406;2023-02-01T07:57:57;6.20;99.90
4390;DHT22;2209;48.982;8.406;2023-02-01T08:00:20;6.20;99.90
4390;DHT22;2209;48.982;8.406;2023-02-01T08:03:14;6.20;99.90
4390;DHT22;2209;48.982;8.406;2023-02-01T08:05:36;6.20;99.90
4390;DHT22;2209;48.982;8.406;2023-02-01T08:08:00;6.30;99.90
4390;DHT22;2209;48.982;8.406;2023-02-01T08:10:22;6.20;99.90
4390;DHT22;2209;48.982;8.406;2023-02-01T08:12:44;6.30;99.90
4390;DHT22;2209;48.982;8.406;2023-02-01T08:15:09;6.20;99.90
4390;DHT22;2209;48.982;8.406;2023-02-01T08:17:31;6.20;99.90
4390;DHT22;2209;48.982;8.406;2023-02-01T08:19:53;6.20;99.90
4390;DHT22;2209;48.982;8.406;2023-02-01T08:22:15;6.30;99.90
4390;DHT22;2209;48.982;8.406;2023-02-01T08:24:39;6.30;99.90
4390;DHT22;2209;48.982;8.406;2023-02-01T08:27:02;6.30;99.90
4390;DHT22;2209;48.982;8.406;2023-02-01T08:29:24;6.30;99.90
4390;DHT22;2209;48.982;8.406;2023-02-01T08:31:46;6.40;99.90
4390;DHT22;2209;48.982;8.406;2023-02-01T08:34:09;6.30;99.90
4390;DHT22;2209;48.982;8.406;2023-02-01T08:36:32;6.30;99.90
4390;DHT22;2209;48.982;8.406;2023-02-01T08:38:55;6.40;99.90
4390;DHT22;2209;48.982;8.406;2023-02-01T08:41:20;6.40;99.90
4390;DHT22;2209;48.982;8.406;2023-02-01T08:43:43;6.40;99.90
4390;DHT22;2209;48.982;8.406;2023-02-01T08:46:06;6.40;99.90
4390;DHT22;2209;48.982;8.406;2023-02-01T08:48:28;6.30;99.90
4390;DHT22;2209;48.982;8.406;2023-02-01T08:50:50;6.40;99.90
4390;DHT22;2209;48.982;8.406;2023-02-01T08:53:12;6.40;99.90
4390;DHT22;2209;48.982;8.406;2023-02-01T08:55:34;6.30;99.90
4390;DHT22;2209;48.982;8.406;2023-02-01T08:57:58;6.40;99.90
4390;DHT22;2209;48.982;8.406;2023-02-01T09:00:20;6.40;99.90
4390;DHT22;2209;48.982;8.406;2023-02-01T09:02:42;6.40;99.90
4390;DHT22;2209;48.982;8.406;2023-02-01T09:05:05;6.40;99.90
4390;DHT22;2209;48.982;8.406;2023-02-01T09:07:27;6.30;99.90
4390;DHT22;2209;48.982;8.406;2023-02-01T09:09:49;6.40;99.90
4390;DHT22;2209;48.982;8.406;2023-02-01T09:12:11;6.40;99.90
4390;DHT22;2209;48.982;8.406;2023-02-01T09:14:35;6.40;99.90
4390;DHT22;2209;48.982;8.406;2023-02-01T09:16:57;6.40;99.90
4390;DHT22;2209;48.982;8.406;2023-02-01T09:19:19;6.40;99.90
4390;DHT22;2209;48.982;8.406;2023-02-01T09:21:41;6.40;99.90
4390;DHT22;2209;48.982;8.406;2023-02-01T09:24:04;6.40;99.90
4390;DHT22;2209;48.982;8.406;2023-02-01T09:26:27;6.40;99.90
4390;DHT22;2209;48.982;8.406;2023-02-01T09:28:49;6.50;99.90
4390;DHT22;2209;48.982;8.406;2023-02-01T09:31:13;6.50;99.90
4390;DHT22;2209;48.982;8.406;2023-02-01T09:33:35;6.60;99.90
4390;DHT22;2209;48.982;8.406;2023-02-01T09:35:58;6.60;99.90
4390;DHT22;2209;48.982;8.406;2023-02-01T09:38:20;6.60;99.90
4390;DHT22;2209;48.982;8.406;2023-02-01T09:40:46;6.50;99.90
4390;DHT22;2209;48.982;8.406;2023-02-01T09:43:19;6.60;99.90
4390;DHT22;2209;48.982;8.406;2023-02-01T09:45:51;6.60;99.90
4390;DHT22;2209;48.982;8.406;2023-02-01T09:48:19;6.60;99.90
4390;DHT22;2209;48.982;8.406;2023-02-01T09:50:44;6.60;99.90
4390;DHT22;2209;48.982;8.406;2023-02-01T09:53:12;6.60;99.90
4390;DHT22;2209;48.982;8.406;2023-02-01T09:55:40;6.60;99.90
4390;DHT22;2209;48.982;8.406;2023-02-01T09:58:06;6.60;99.90
4390;DHT22;2209;48.982;8.406;2023-02-01T10:00:31;6.60;99.90
4390;DHT22;2209;48.982;8.406;2023-02-01T10:02:56;6.60;99.90
4390;DHT22;2209;48.982;8.406;2023-02-01T10:05:34;6.60;99.90
4390;DHT22;2209;48.982;8.406;2023-02-01T10:08:03;6.60;99.90
4390;DHT22;2209;48.982;8.406;2023-02-01T10:10:30;6.70;99.90
4390;DHT22;2209;48.982;8.406;2023-02-01T10:15:45;6.70;99.90
4390;DHT22;2209;48.982;8.406;2023-02-01T10:21:10;6.70;99.90
4390;DHT22;2209;48.982;8.406;2023-02-01T10:23:52;6.70;99.90
4390;DHT22;2209;48.982;8.406;2023-02-01T10:26:18;6.70;99.90
4390;DHT22;2209;48.982;8.406;2023-02-01T10:28:43;6.70;99.90
4390;DHT22;2209;48.982;8.406;2023-02-01T10:31:09;6.70;99.90
4390;DHT22;2209;48.982;8.406;2023-02-01T10:33:42;6.70;99.90
4390;DHT22;2209;48.982;8.406;2023-02-01T10:36:14;6.80;99.90
4390;DHT22;2209;48.982;8.406;2023-02-01T10:38:37;6.80;99.90
4390;DHT22;2209;48.982;8.406;2023-02-01T10:41:02;6.80;99.90
4390;DHT22;2209;48.982;8.406;2023-02-01T10:43:24;6.80;99.90
4390;DHT22;2209;48.982;8.406;2023-02-01T10:45:46;6.80;99.90
4390;DHT22;2209;48.982;8.406;2023-02-01T10:48:09;6.80;99.90
4390;DHT22;2209;48.982;8.406;2023-02-01T10:50:35;6.80;99.90
4390;DHT22;2209;48.982;8.406;2023-02-01T10:53:04;6.80;99.90
4390;DHT22;2209;48.982;8.406;2023-02-01T10:55:31;6.80;99.90
4390;DHT22;2209;48.982;8.406;2023-02-01T10:57:57;6.80;99.90
4390;DHT22;2209;48.982;8.406;2023-02-01T11:00:20;6.80;99.90
4390;DHT22;2209;48.982;8.406;2023-02-01T11:02:43;6.80;99.90
4390;DHT22;2209;48.982;8.406;2023-02-01T11:05:07;6.80;99.90
4390;DHT22;2209;48.982;8.406;2023-02-01T11:07:31;6.80;99.90
4390;DHT22;2209;48.982;8.406;2023-02-01T11:09:55;6.80;99.90
4390;DHT22;2209;48.982;8.406;2023-02-01T11:12:27;6.80;99.90
4390;DHT22;2209;48.982;8.406;2023-02-01T11:14:50;6.80;99.90
4390;DHT22;2209;48.982;8.406;2023-02-01T11:17:26;6.80;99.90
4390;DHT22;2209;48.982;8.406;2023-02-01T11:19:57;6.80;99.90
4390;DHT22;2209;48.982;8.406;2023-02-01T11:22:19;6.80;99.90
4390;DHT22;2209;48.982;8.406;2023-02-01T11:24:44;6.80;99.90
4390;DHT22;2209;48.982;8.406;2023-02-01T11:27:16;6.80;99.90
4390;DHT22;2209;48.982;8.406;2023-02-01T11:29:41;6.80;99.90
4390;DHT22;2209;48.982;8.406;2023-02-01T11:32:04;6.90;99.90
4390;DHT22;2209;48.982;8.406;2023-02-01T11:34:32;6.90;99.90
4390;DHT22;2209;48.982;8.406;2023-02-01T11:36:59;6.80;99.90
4390;DHT22;2209;48.982;8.406;2023-02-01T11:39:26;6.90;99.90
4390;DHT22;2209;48.982;8.406;2023-02-01T11:42:00;6.90;99.90
4390;DHT22;2209;48.982;8.406;2023-02-01T11:44:33;6.80;99.90
4390;DHT22;2209;48.982;8.406;2023-02-01T11:46:56;6.80;99.90
4390;DHT22;2209;48.982;8.406;2023-02-01T11:49:34;6.80;99.90
4390;DHT22;2209;48.982;8.406;2023-02-01T11:52:08;6.90;99.90
4390;DHT22;2209;48.982;8.406;2023-02-01T11:54:42;6.80;99.90
4390;DHT22;2209;48.982;8.406;2023-02-01T11:57:20;6.90;99.90
4390;DHT22;2209;48.982;8.406;2023-02-01T11:59:57;6.90;99.90
4390;DHT22;2209;48.982;8.406;2023-02-01T12:02:49;7.00;99.90
4390;DHT22;2209;48.982;8.406;2023-02-01T12:05:31;6.90;99.90
4390;DHT22;2209;48.982;8.406;2023-02-01T12:08:21;7.00;99.90
4390;DHT22;2209;48.982;8.406;2023-02-01T12:10:53;6.90;99.90
4390;DHT22;2209;48.982;8.406;2023-02-01T12:13:27;7.00;99.90
4390;DHT22;2209;48.982;8.406;2023-02-01T12:16:02;7.00;99.90
4390;DHT22;2209;48.982;8.406;2023-02-01T12:18:44;7.00;99.90
4390;DHT22;2209;48.982;8.406;2023-02-01T12:21:22;7.00;99.90
4390;DHT22;2209;48.982;8.406;2023-02-01T12:23:57;7.00;99.90
4390;DHT22;2209;48.982;8.406;2023-02-01T12:26:40;7.00;99.90
4390;DHT22;2209;48.982;8.406;2023-02-01T12:29:25;7.00;99.90
4390;DHT22;2209;48.982;8.406;2023-02-01T12:32:06;7.00;99.90
4390;DHT22;2209;48.982;8.406;2023-02-01T12:34:47;7.00;99.90
4390;DHT22;2209;48.982;8.406;2023-02-01T12:37:24;7.10;99.90
4390;DHT22;2209;48.982;8.406;2023-02-01T12:39:53;7.00;99.90
4390;DHT22;2209;48.982;8.406;2023-02-01T12:42:19;7.10;99.90
4390;DHT22;2209;48.982;8.406;2023-02-01T12:44:47;7.00;99.90
4390;DHT22;2209;48.982;8.406;2023-02-01T12:47:19;7.10;99.90
4390;DHT22;2209;48.982;8.406;2023-02-01T12:49:47;7.10;99.90
4390;DHT22;2209;48.982;8.406;2023-02-01T12:52:14;7.10;99.90
4390;DHT22;2209;48.982;8.406;2023-02-01T12:54:40;7.10;99.90
4390;DHT22;2209;48.982;8.406;2023-02-01T12:57:05;7.10;99.90
4390;DHT22;2209;48.982;8.406;2023-02-01T12:59:34;7.10;99.90
4390;DHT22;2209;48.982;8.406;2023-02-01T13:02:04;7.10;99.90
4390;DHT22;2209;48.982;8.406;2023-02-01T13:04:34;7.10;99.90
4390;DHT22;2209;48.982;8.406;2023-02-01T13:07:04;7.10;99.90
4390;DHT22;2209;48.982;8.406;2023-02-01T13:09:30;7.10;99.90
4390;DHT22;2209;48.982;8.406;2023-02-01T13:12:00;7.10;99.90
4390;DHT22;2209;48.982;8.406;2023-02-01T13:14:32;7.10;99.90
4390;DHT22;2209;48.982;8.406;2023-02-01T13:17:00;7.10;99.90
4390;DHT22;2209;48.982;8.406;2023-02-01T13:19:28;7.00;99.90
4390;DHT22;2209;48.982;8.406;2023-02-01T13:21:56;7.00;99.90
4390;DHT22;2209;48.982;8.406;2023-02-01T13:24:30;7.10;99.90
4390;DHT22;2209;48.982;8.406;2023-02-01T13:26:54;7.10;99.90
4390;DHT22;2209;48.982;8.406;2023-02-01T13:29:17;7.10;99.90
4390;DHT22;2209;48.982;8.406;2023-02-01T13:31:58;7.00;99.90
4390;DHT22;2209;48.982;8.406;2023-02-01T13:37:41;7.10;99.90
4390;DHT22;2209;48.982;8.406;2023-02-01T13:40:24;7.10;99.90
4390;DHT22;2209;48.982;8.406;2023-02-01T13:42:52;7.10;99.90
4390;DHT22;2209;48.982;8.406;2023-02-01T13:45:17;7.10;99.90
4390;DHT22;2209;48.982;8.406;2023-02-01T13:47:43;7.10;99.90
4390;DHT22;2209;48.982;8.406;2023-02-01T13:50:13;7.10;99.90
4390;DHT22;2209;48.982;8.406;2023-02-01T13:52:44;7.10;99.90
4390;DHT22;2209;48.982;8.406;2023-02-01T13:55:26;7.20;99.90
4390;DHT22;2209;48.982;8.406;2023-02-01T13:57:51;7.10;99.90
4390;DHT22;2209;48.982;8.406;2023-02-01T14:00:26;7.10;99.90
4390;DHT22;2209;48.982;8.406;2023-02-01T14:03:18;7.20;99.90
4390;DHT22;2209;48.982;8.406;2023-02-01T14:06:16;7.20;99.90
4390;DHT22;2209;48.982;8.406;2023-02-01T14:08:43;7.20;99.90
4390;DHT22;2209;48.982;8.406;2023-02-01T14:11:05;7.20;99.90
4390;DHT22;2209;48.982;8.406;2023-02-01T14:13:29;7.20;99.90
4390;DHT22;2209;48.982;8.406;2023-02-01T14:16:12;7.20;99.90
4390;DHT22;2209;48.982;8.406;2023-02-01T14:18:56;7.20;99.90
4390;DHT22;2209;48.982;8.406;2023-02-01T14:21:21;7.30;99.90
4390;DHT22;2209;48.982;8.406;2023-02-01T14:23:47;7.30;99.90
4390;DHT22;2209;48.982;8.406;2023-02-01T14:26:13;7.30;99.90
4390;DHT22;2209;48.982;8.406;2023-02-01T14:28:40;7.30;99.90
4390;DHT22;2209;48.982;8.406;2023-02-01T14:31:16;7.30;99.90
4390;DHT22;2209;48.982;8.406;2023-02-01T14:33:41;7.30;99.90
4390;DHT22;2209;48.982;8.406;2023-02-01T14:36:07;7.30;99.90
4390;DHT22;2209;48.982;8.406;2023-02-01T14:38:31;7.30;99.90
4390;DHT22;2209;48.982;8.406;2023-02-01T14:40:55;7.30;99.90
4390;DHT22;2209;48.982;8.406;2023-02-01T14:43:50;7.40;99.90
4390;DHT22;2209;48.982;8.406;2023-02-01T14:46:12;7.40;99.90
4390;DHT22;2209;48.982;8.406;2023-02-01T14:48:44;7.40;99.90
4390;DHT22;2209;48.982;8.406;2023-02-01T14:51:07;7.40;99.90
4390;DHT22;2209;48.982;8.406;2023-02-01T14:53:33;7.40;99.90
4390;DHT22;2209;48.982;8.406;2023-02-01T14:56:00;7.40;99.90
4390;DHT22;2209;48.982;8.406;2023-02-01T14:58:32;7.40;99.90
4390;DHT22;2209;48.982;8.406;2023-02-01T15:00:58;7.40;99.90
4390;DHT22;2209;48.982;8.406;2023-02-01T15:03:34;7.40;99.90
4390;DHT22;2209;48.982;8.406;2023-02-01T15:05:58;7.40;99.90
4390;DHT22;2209;48.982;8.406;2023-02-01T15:08:24;7.50;99.90
4390;DHT22;2209;48.982;8.406;2023-02-01T15:10:49;7.40;99.90
4390;DHT22;2209;48.982;8.406;2023-02-01T15:13:20;7.50;99.90
4390;DHT22;2209;48.982;8.406;2023-02-01T15:15:42;7.50;99.90
4390;DHT22;2209;48.982;8.406;2023-02-01T15:18:04;7.50;99.90
4390;DHT22;2209;48.982;8.406;2023-02-01T15:20:28;7.50;99.90
4390;DHT22;2209;48.982;8.406;2023-02-01T15:22:56;7.50;99.90
4390;DHT22;2209;48.982;8.406;2023-02-01T15:25:19;7.50;99.90
4390;DHT22;2209;48.982;8.406;2023-02-01T15:27:42;7.50;99.90
4390;DHT22;2209;48.982;8.406;2023-02-01T15:30:07;7.50;99.90
4390;DHT22;2209;48.982;8.406;2023-02-01T15:32:31;7.50;99.90
4390;DHT22;2209;48.982;8.406;2023-02-01T15:34:53;7.50;99.90
4390;DHT22;2209;48.982;8.406;2023-02-01T15:37:16;7.50;99.90
4390;DHT22;2209;48.982;8.406;2023-02-01T15:40:03;7.50;99.90
4390;DHT22;2209;48.982;8.406;2023-02-01T15:42:25;7.50;99.90
4390;DHT22;2209;48.982;8.406;2023-02-01T15:44:48;7.50;99.90
4390;DHT22;2209;48.982;8.406;2023-02-01T15:47:15;7.50;99.90
4390;DHT22;2209;48.982;8.406;2023-02-01T15:49:39;7.50;99.90
4390;DHT22;2209;48.982;8.406;2023-02-01T15:52:08;7.60;99.90
4390;DHT22;2209;48.982;8.406;2023-02-01T15:54:41;7.60;99.90
4390;DHT22;2209;48.982;8.406;2023-02-01T15:57:05;7.50;99.90
4390;DHT22;2209;48.982;8.406;2023-02-01T15:59:31;7.50;99.90
4390;DHT22;2209;48.982;8.406;2023-02-01T16:01:54;7.50;99.90
4390;DHT22;2209;48.982;8.406;2023-02-01T16:04:20;7.50;99.90
4390;DHT22;2209;48.982;8.406;2023-02-01T16:06:46;7.50;99.90
4390;DHT22;2209;48.982;8.406;2023-02-01T16:09:12;7.50;99.90
4390;DHT22;2209;48.982;8.406;2023-02-01T16:11:41;7.50;99.90
4390;DHT22;2209;48.982;8.406;2023-02-01T16:14:03;7.50;99.90
4390;DHT22;2209;48.982;8.406;2023-02-01T16:16:27;7.50;99.90
4390;DHT22;2209;48.982;8.406;2023-02-01T16:18:50;7.50;99.90
4390;DHT22;2209;48.982;8.406;2023-02-01T16:21:13;7.60;99.90
4390;DHT22;2209;48.982;8.406;2023-02-01T16:23:35;7.50;99.90